Search for airport 
image banner adimage banner ad
image banner ad

VDSV - Sihanouk International Airport

Located in Sihanouk, Cambodia

ICAO - VDSV, IATA - KOS

Data provided by Airmate  

General information

Coordinates: N10°34'29" E103°38'3"
Elevation is 10 feet MSL.
 
Rated:
View ratings: [VIEW]


View others Airports in Xrong Preah Sihanouk

Operational data

Open for public use
Current time UTC:
Current local time:
METAR: VVPQ 202030Z VRB02KT 6000 SCT015 24/23 Q1008 NOSIG
TAF: TAF VVPQ 201700Z 2018/2118 23006KT 9999 SCT015 TEMPO 2022/2104 25015G25KT 5000 SHRA SCT015 FEW017CB BKN040
View NOTAMs / SUP AIP / TFR affecting this airport [VIEW]
Communications frequencies: [VIEW]

Runways:

RWY identifierQFULength (ft)Width (ft)SurfaceLDA (ft)
0328°8202148ASP
218202148

Airport contact information

Address: Sihanouk Cambodia

Satellite view of VDSV